Time,TemperatureF,DewpointF,PressureIn,WindDirection,WindDirectionDegrees,WindSpeedMPH,WindSpeedGustMPH,Humidity,HourlyPrecipIn,Conditions,Clouds,dailyrainin,SoftwareType,DateUTC
2013-04-28 00:00:00,50.4,33.4,30.27,SW,221,0.0,0.0,52,0.00,,,0.00,Wunderground v.1.15,2013-04-28 04:00:00,
2013-04-28 00:06:00,50.2,32.8,30.26,SW,221,0.0,0.0,51,0.00,,,0.00,Wunderground v.1.15,2013-04-28 04:06:00,
2013-04-28 00:15:00,50.1,32.7,30.26,SW,221,0.0,1.0,51,0.00,,,0.00,Wunderground v.1.15,2013-04-28 04:15:00,
2013-04-28 00:20:00,49.9,32.5,30.26,SW,221,0.0,0.0,51,0.00,,,0.00,Wunderground v.1.15,2013-04-28 04:20:00,
2013-04-28 00:25:00,50.1,32.2,30.26,SW,221,0.0,0.0,50,0.00,,,0.00,Wunderground v.1.15,2013-04-28 04:25:00,
2013-04-28 00:35:00,49.8,32.4,30.26,SW,221,0.0,0.0,51,0.00,,,0.00,Wunderground v.1.15,2013-04-28 04:35:00,
2013-04-28 00:45:00,50.1,31.7,30.26,SW,221,0.0,0.0,49,0.00,,,0.00,Wunderground v.1.15,2013-04-28 04:45:00,
2013-04-28 00:50:00,50.1,31.7,30.26,SW,221,0.0,0.0,49,0.00,,,0.00,Wunderground v.1.15,2013-04-28 04:50:00,
2013-04-28 00:55:00,49.6,31.2,30.26,SW,221,0.0,0.0,49,0.00,,,0.00,Wunderground v.1.15,2013-04-28 04:55:00,
2013-04-28 01:00:00,49.5,31.6,30.26,SW,221,0.0,0.0,50,0.00,,,0.00,Wunderground v.1.15,2013-04-28 05:00:00,
2013-04-28 01:05:00,49.1,31.7,30.26,SW,221,0.0,0.0,51,0.00,,,0.00,Wunderground v.1.15,2013-04-28 05:05:00,
2013-04-28 01:15:00,48.6,33.1,30.26,SW,221,0.0,0.0,55,0.00,,,0.00,Wunderground v.1.15,2013-04-28 05:15:00,
2013-04-28 01:25:00,48.0,33.5,30.26,SW,221,0.0,0.0,57,0.00,,,0.00,Wunderground v.1.15,2013-04-28 05:25:00,
2013-04-28 01:35:00,47.7,31.9,30.26,SW,221,0.0,0.0,54,0.00,,,0.00,Wunderground v.1.15,2013-04-28 05:35:00,
2013-04-28 01:50:00,47.0,32.5,30.26,SW,221,0.0,0.0,57,0.00,,,0.00,Wunderground v.1.15,2013-04-28 05:50:00,
2013-04-28 01:55:00,47.0,33.8,30.26,SW,221,0.0,0.0,60,0.00,,,0.00,Wunderground v.1.15,2013-04-28 05:55:00,
2013-04-28 02:05:00,46.4,33.3,30.25,SW,221,0.0,0.0,60,0.00,,,0.00,Wunderground v.1.15,2013-04-28 06:05:00,
2013-04-28 02:15:00,46.4,32.4,30.25,SW,221,0.0,0.0,58,0.00,,,0.00,Wunderground v.1.15,2013-04-28 06:15:00,
2013-04-28 02:25:00,46.5,32.5,30.25,SW,221,0.0,0.0,58,0.00,,,0.00,Wunderground v.1.15,2013-04-28 06:25:00,
2013-04-28 02:35:00,46.2,34.7,30.24,SW,221,0.0,0.0,64,0.00,,,0.00,Wunderground v.1.15,2013-04-28 06:35:00,
2013-04-28 02:45:00,45.5,34.4,30.24,SW,221,0.0,0.0,65,0.00,,,0.00,Wunderground v.1.15,2013-04-28 06:45:00,
2013-04-28 02:55:00,45.2,33.7,30.24,SW,221,0.0,0.0,64,0.00,,,0.00,Wunderground v.1.15,2013-04-28 06:55:00,
2013-04-28 03:10:00,45.1,34.4,30.23,SW,221,0.0,0.0,66,0.00,,,0.00,Wunderground v.1.15,2013-04-28 07:10:00,
2013-04-28 03:15:00,44.5,34.2,30.23,SW,221,0.0,0.0,67,0.00,,,0.00,Wunderground v.1.15,2013-04-28 07:15:00,
2013-04-28 03:25:00,44.3,34.4,30.23,SW,221,0.0,0.0,68,0.00,,,0.00,Wunderground v.1.15,2013-04-28 07:25:00,
2013-04-28 03:35:00,44.1,34.9,30.23,SW,221,0.0,0.0,70,0.00,,,0.00,Wunderground v.1.15,2013-04-28 07:35:00,
2013-04-28 03:45:00,43.9,33.6,30.23,SW,221,0.0,0.0,67,0.00,,,0.00,Wunderground v.1.15,2013-04-28 07:45:00,
2013-04-28 03:55:00,43.3,34.2,30.24,SW,221,0.0,0.0,70,0.00,,,0.00,Wunderground v.1.15,2013-04-28 07:55:00,
2013-04-28 04:06:00,43.2,34.1,30.23,SW,221,0.0,0.0,70,0.00,,,0.00,Wunderground v.1.15,2013-04-28 08:06:00,
2013-04-28 04:15:00,43.1,34.7,30.23,SW,221,0.0,0.0,72,0.00,,,0.00,Wunderground v.1.15,2013-04-28 08:15:00,
2013-04-28 04:25:00,42.9,34.5,30.24,SW,221,0.0,0.0,72,0.00,,,0.00,Wunderground v.1.15,2013-04-28 08:25:00,
2013-04-28 04:35:00,42.5,34.5,30.24,SW,221,0.0,0.0,73,0.00,,,0.00,Wunderground v.1.15,2013-04-28 08:35:00,
2013-04-28 04:45:00,42.2,34.2,30.24,SW,221,0.0,0.0,73,0.00,,,0.00,Wunderground v.1.15,2013-04-28 08:45:00,
2013-04-28 04:55:00,42.3,34.6,30.24,SW,221,0.0,0.0,74,0.00,,,0.00,Wunderground v.1.15,2013-04-28 08:55:00,
2013-04-28 05:05:00,42.2,34.5,30.24,SW,221,0.0,0.0,74,0.00,,,0.00,Wunderground v.1.15,2013-04-28 09:05:00,
2013-04-28 05:15:00,41.8,34.8,30.24,SW,221,0.0,0.0,76,0.00,,,0.00,Wunderground v.1.15,2013-04-28 09:15:00,
2013-04-28 05:25:00,41.5,34.8,30.23,SW,221,0.0,0.0,77,0.00,,,0.00,Wunderground v.1.15,2013-04-28 09:25:00,
2013-04-28 05:35:00,41.3,35.0,30.23,SW,221,0.0,0.0,78,0.00,,,0.00,Wunderground v.1.15,2013-04-28 09:35:00,
2013-04-28 05:45:00,41.3,35.0,30.23,SW,221,0.0,0.0,78,0.00,,,0.00,Wunderground v.1.15,2013-04-28 09:45:00,
2013-04-28 05:55:00,41.1,35.1,30.24,SW,221,0.0,0.0,79,0.00,,,0.00,Wunderground v.1.15,2013-04-28 09:55:00,
2013-04-28 06:10:00,41.1,35.1,30.24,SW,221,0.0,0.0,79,0.00,,,0.00,Wunderground v.1.15,2013-04-28 10:10:00,
2013-04-28 06:15:00,40.9,35.5,30.24,SW,221,0.0,0.0,81,0.00,,,0.00,Wunderground v.1.15,2013-04-28 10:15:00,
2013-04-28 06:25:00,41.1,35.7,30.25,SW,221,0.0,0.0,81,0.00,,,0.00,Wunderground v.1.15,2013-04-28 10:25:00,
2013-04-28 06:35:00,41.5,35.8,30.25,SW,221,0.0,0.0,80,0.00,,,0.00,Wunderground v.1.15,2013-04-28 10:35:00,
2013-04-28 06:45:00,41.8,36.4,30.25,SW,221,0.0,0.0,81,0.00,,,0.00,Wunderground v.1.15,2013-04-28 10:45:00,
2013-04-28 06:55:00,42.3,36.6,30.25,SW,221,0.0,1.0,80,0.00,,,0.00,Wunderground v.1.15,2013-04-28 10:55:00,
2013-04-28 07:05:00,43.5,37.7,30.25,SW,221,0.0,0.0,80,0.00,,,0.00,Wunderground v.1.15,2013-04-28 11:05:00,
2013-04-28 07:15:00,44.5,38.4,30.25,SW,221,0.0,0.0,79,0.00,,,0.00,Wunderground v.1.15,2013-04-28 11:15:00,
2013-04-28 07:25:00,45.5,38.7,30.26,SW,221,0.0,1.0,77,0.00,,,0.00,Wunderground v.1.15,2013-04-28 11:25:00,
2013-04-28 07:35:00,47.4,39.9,30.26,SW,221,0.0,0.0,75,0.00,,,0.00,Wunderground v.1.15,2013-04-28 11:35:00,
2013-04-28 07:45:00,48.6,40.3,30.26,SW,225,0.0,0.0,73,0.00,,,0.00,Wunderground v.1.15,2013-04-28 11:45:00,
2013-04-28 07:55:00,50.7,40.5,30.26,SW,225,0.0,0.0,68,0.00,,,0.00,Wunderground v.1.15,2013-04-28 11:55:00,
2013-04-28 08:05:00,52.3,39.2,30.27,SW,225,1.0,1.0,61,0.00,,,0.00,Wunderground v.1.15,2013-04-28 12:05:00,
2013-04-28 08:15:00,53.3,38.4,30.27,SW,225,1.0,1.0,57,0.00,,,0.00,Wunderground v.1.15,2013-04-28 12:15:00,
2013-04-28 08:25:00,54.4,39.5,30.27,SW,225,1.0,2.0,57,0.00,,,0.00,Wunderground v.1.15,2013-04-28 12:25:00,
2013-04-28 08:35:00,55.1,38.3,30.27,SW,225,1.0,2.0,53,0.00,,,0.00,Wunderground v.1.15,2013-04-28 12:35:00,
2013-04-28 08:45:00,56.2,40.2,30.27,SE,140,1.0,1.0,55,0.00,,,0.00,Wunderground v.1.15,2013-04-28 12:45:00,
2013-04-28 08:55:00,57.6,41.5,30.27,SSE,149,1.0,2.0,55,0.00,,,0.00,Wunderground v.1.15,2013-04-28 12:55:00,
2013-04-28 09:05:00,58.4,40.8,30.27,SE,141,1.0,1.0,52,0.00,,,0.00,Wunderground v.1.15,2013-04-28 13:05:00,
2013-04-28 09:15:00,59.0,39.9,30.27,South,173,1.0,2.0,49,0.00,,,0.00,Wunderground v.1.15,2013-04-28 13:15:00,
2013-04-28 09:25:00,59.5,40.8,30.27,South,179,1.0,2.0,50,0.00,,,0.00,Wunderground v.1.15,2013-04-28 13:25:00,
2013-04-28 09:35:00,60.7,40.3,30.26,SSW,195,1.0,2.0,47,0.00,,,0.00,Wunderground v.1.15,2013-04-28 13:35:00,
2013-04-28 09:40:00,60.9,40.0,30.26,SSW,206,1.0,1.0,46,0.00,,,0.00,Wunderground v.1.15,2013-04-28 13:40:00,
2013-04-28 09:45:00,61.5,41.6,30.26,SSW,205,1.0,1.0,48,0.00,,,0.00,Wunderground v.1.15,2013-04-28 13:45:00,
2013-04-28 09:55:00,62.6,43.2,30.26,SE,136,1.0,1.0,49,0.00,,,0.00,Wunderground v.1.15,2013-04-28 13:55:00,
2013-04-28 10:10:00,64.2,41.2,30.26,SSE,148,2.0,2.0,43,0.00,,,0.00,Wunderground v.1.15,2013-04-28 14:10:00,
2013-04-28 10:15:00,64.5,40.3,30.26,SW,220,2.0,2.0,41,0.00,,,0.00,Wunderground v.1.15,2013-04-28 14:15:00,
2013-04-28 10:20:00,65.0,42.5,30.26,WSW,245,1.0,3.0,44,0.00,,,0.00,Wunderground v.1.15,2013-04-28 14:20:00,
2013-04-28 10:30:00,65.6,42.5,30.26,SSE,165,2.0,2.0,43,0.00,,,0.00,Wunderground v.1.15,2013-04-28 14:30:00,
2013-04-28 10:35:00,65.6,41.9,30.25,SSW,196,1.0,2.0,42,0.00,,,0.00,Wunderground v.1.15,2013-04-28 14:35:00,
2013-04-28 10:45:00,66.1,42.9,30.25,South,182,2.0,3.0,43,0.00,,,0.00,Wunderground v.1.15,2013-04-28 14:45:00,
2013-04-28 10:55:00,65.8,40.8,30.25,SSE,160,2.0,4.0,40,0.00,,,0.00,Wunderground v.1.15,2013-04-28 14:55:00,
2013-04-28 11:05:00,66.6,43.4,30.25,SSE,161,2.0,4.0,43,0.00,,,0.00,Wunderground v.1.15,2013-04-28 15:05:00,
2013-04-28 11:15:00,67.1,41.3,30.25,SSE,155,2.0,2.0,39,0.00,,,0.00,Wunderground v.1.15,2013-04-28 15:15:00,
2013-04-28 11:25:00,68.1,42.2,30.24,SE,127,1.0,3.0,39,0.00,,,0.00,Wunderground v.1.15,2013-04-28 15:25:00,
2013-04-28 11:35:00,68.3,43.0,30.24,South,169,2.0,3.0,40,0.00,,,0.00,Wunderground v.1.15,2013-04-28 15:35:00,
2013-04-28 11:40:00,67.8,40.6,30.24,SW,222,2.0,2.0,37,0.00,,,0.00,Wunderground v.1.15,2013-04-28 15:40:00,
2013-04-28 11:45:00,68.1,41.5,30.24,SSW,207,3.0,3.0,38,0.00,,,0.00,Wunderground v.1.15,2013-04-28 15:45:00,
2013-04-28 11:55:00,68.4,43.1,30.24,ESE,111,3.0,3.0,40,0.00,,,0.00,Wunderground v.1.15,2013-04-28 15:55:00,
2013-04-28 12:05:00,69.4,43.4,30.24,SSE,148,2.0,4.0,39,0.00,,,0.00,Wunderground v.1.15,2013-04-28 16:05:00,
2013-04-28 12:15:00,68.8,42.8,30.24,South,184,3.0,7.0,39,0.00,,,0.00,Wunderground v.1.15,2013-04-28 16:15:00,
2013-04-28 12:25:00,69.1,41.7,30.24,SSE,157,3.0,4.0,37,0.00,,,0.00,Wunderground v.1.15,2013-04-28 16:25:00,
2013-04-28 12:35:00,69.6,43.5,30.23,SSW,211,3.0,4.0,39,0.00,,,0.00,Wunderground v.1.15,2013-04-28 16:35:00,
2013-04-28 12:45:00,69.6,42.9,30.23,SSE,161,3.0,4.0,38,0.00,,,0.00,Wunderground v.1.15,2013-04-28 16:45:00,
2013-04-28 12:55:00,70.3,43.5,30.23,ESE,117,3.0,4.0,38,0.00,,,0.00,Wunderground v.1.15,2013-04-28 16:55:00,
2013-04-28 13:05:00,70.1,41.9,30.22,SSE,154,4.0,5.0,36,0.00,,,0.00,Wunderground v.1.15,2013-04-28 17:05:00,
2013-04-28 13:15:00,70.4,41.4,30.22,SE,142,3.0,3.0,35,0.00,,,0.00,Wunderground v.1.15,2013-04-28 17:15:00,
2013-04-28 13:25:00,69.1,40.3,30.22,SE,131,4.0,4.0,35,0.00,,,0.00,Wunderground v.1.15,2013-04-28 17:25:00,
2013-04-28 13:35:00,69.4,42.0,30.21,ESE,123,3.0,3.0,37,0.00,,,0.00,Wunderground v.1.15,2013-04-28 17:35:00,
2013-04-28 13:45:00,69.1,41.0,30.21,SE,130,3.0,5.0,36,0.00,,,0.00,Wunderground v.1.15,2013-04-28 17:45:00,
2013-04-28 13:55:00,68.6,41.3,30.21,SE,130,4.0,7.0,37,0.00,,,0.00,Wunderground v.1.15,2013-04-28 17:55:00,
2013-04-28 14:10:00,68.1,42.2,30.21,South,175,4.0,5.0,39,0.00,,,0.00,Wunderground v.1.15,2013-04-28 18:10:00,
2013-04-28 14:15:00,68.3,41.7,30.21,South,174,4.0,5.0,38,0.00,,,0.00,Wunderground v.1.15,2013-04-28 18:15:00,
2013-04-28 14:25:00,68.6,41.3,30.21,SW,214,3.0,5.0,37,0.00,,,0.00,Wunderground v.1.15,2013-04-28 18:25:00,
2013-04-28 14:35:00,68.1,39.4,30.21,SSE,165,5.0,5.0,35,0.00,,,0.00,Wunderground v.1.15,2013-04-28 18:35:00,
2013-04-28 14:45:00,66.9,35.3,30.21,South,190,4.0,5.0,31,0.00,,,0.00,Wunderground v.1.15,2013-04-28 18:45:00,
2013-04-28 14:55:00,66.8,33.5,30.20,East,101,4.0,4.0,29,0.00,,,0.00,Wunderground v.1.15,2013-04-28 18:55:00,
2013-04-28 15:05:00,66.0,31.9,30.20,East,95,5.0,6.0,28,0.00,,,0.00,Wunderground v.1.15,2013-04-28 19:05:00,
2013-04-28 15:15:00,65.8,34.3,30.20,SSE,161,5.0,5.0,31,0.00,,,0.00,Wunderground v.1.15,2013-04-28 19:15:00,
2013-04-28 15:25:00,65.8,32.6,30.20,SE,131,4.0,6.0,29,0.00,,,0.00,Wunderground v.1.15,2013-04-28 19:25:00,
2013-04-28 15:35:00,65.8,30.9,30.20,SE,137,3.0,3.0,27,0.00,,,0.00,Wunderground v.1.15,2013-04-28 19:35:00,
2013-04-28 15:45:00,66.1,30.2,30.20,South,191,5.0,5.0,26,0.00,,,0.00,Wunderground v.1.15,2013-04-28 19:45:00,
2013-04-28 15:55:00,65.8,29.9,30.20,SE,143,5.0,5.0,26,0.00,,,0.00,Wunderground v.1.15,2013-04-28 19:55:00,
2013-04-28 16:10:00,65.0,32.8,30.19,SE,146,4.0,7.0,30,0.00,,,0.00,Wunderground v.1.15,2013-04-28 20:10:00,
2013-04-28 16:15:00,64.8,32.6,30.19,South,177,5.0,7.0,30,0.00,,,0.00,Wunderground v.1.15,2013-04-28 20:15:00,
2013-04-28 16:25:00,64.3,31.3,30.19,South,189,3.0,4.0,29,0.00,,,0.00,Wunderground v.1.15,2013-04-28 20:25:00,
2013-04-28 16:35:00,63.5,29.8,30.19,SSW,203,4.0,5.0,28,0.00,,,0.00,Wunderground v.1.15,2013-04-28 20:35:00,
2013-04-28 16:45:00,62.7,31.6,30.19,South,173,4.0,4.0,31,0.00,,,0.00,Wunderground v.1.15,2013-04-28 20:45:00,
2013-04-28 16:55:00,62.7,32.4,30.18,South,185,3.0,4.0,32,0.00,,,0.00,Wunderground v.1.15,2013-04-28 20:55:00,
2013-04-28 17:10:00,61.8,30.0,30.18,SE,145,4.0,7.0,30,0.00,,,0.00,Wunderground v.1.15,2013-04-28 21:10:00,
2013-04-28 17:15:00,61.6,32.2,30.18,SW,223,4.0,7.0,33,0.00,,,0.00,Wunderground v.1.15,2013-04-28 21:15:00,
2013-04-28 17:25:00,61.6,29.8,30.18,SE,132,3.0,4.0,30,0.00,,,0.00,Wunderground v.1.15,2013-04-28 21:25:00,
2013-04-28 17:35:00,61.5,30.6,30.18,SE,134,3.0,3.0,31,0.00,,,0.00,Wunderground v.1.15,2013-04-28 21:35:00,
2013-04-28 17:45:00,61.2,33.3,30.18,SW,232,3.0,3.0,35,0.00,,,0.00,Wunderground v.1.15,2013-04-28 21:45:00,
2013-04-28 17:55:00,60.7,31.4,30.18,SSE,147,3.0,3.0,33,0.00,,,0.00,Wunderground v.1.15,2013-04-28 21:55:00,
2013-04-28 18:05:00,60.2,31.0,30.17,South,172,3.0,6.0,33,0.00,,,0.00,Wunderground v.1.15,2013-04-28 22:05:00,
2013-04-28 18:15:00,59.6,31.2,30.17,SW,234,3.0,5.0,34,0.00,,,0.00,Wunderground v.1.15,2013-04-28 22:15:00,
2013-04-28 18:25:00,59.5,31.8,30.17,SSW,209,3.0,5.0,35,0.00,,,0.00,Wunderground v.1.15,2013-04-28 22:25:00,
2013-04-28 18:35:00,59.2,32.2,30.17,SSE,152,3.0,4.0,36,0.00,,,0.00,Wunderground v.1.15,2013-04-28 22:35:00,
2013-04-28 18:45:00,58.9,30.6,30.17,SSE,164,3.0,5.0,34,0.00,,,0.00,Wunderground v.1.15,2013-04-28 22:45:00,
2013-04-28 18:55:00,58.6,30.3,30.17,SSW,202,3.0,3.0,34,0.00,,,0.00,Wunderground v.1.15,2013-04-28 22:55:00,
2013-04-28 19:05:00,58.3,28.5,30.16,SSE,162,3.0,4.0,32,0.00,,,0.00,Wunderground v.1.15,2013-04-28 23:05:00,
2013-04-28 19:15:00,58.1,28.4,30.16,SW,221,3.0,3.0,32,0.00,,,0.00,Wunderground v.1.15,2013-04-28 23:15:00,
2013-04-28 19:25:00,57.8,28.1,30.16,SSE,165,3.0,7.0,32,0.00,,,0.00,Wunderground v.1.15,2013-04-28 23:25:00,
2013-04-28 19:35:00,57.5,28.6,30.17,SSE,167,3.0,4.0,33,0.00,,,0.00,Wunderground v.1.15,2013-04-28 23:35:00,
2013-04-28 19:45:00,57.3,28.4,30.17,South,175,3.0,3.0,33,0.00,,,0.00,Wunderground v.1.15,2013-04-28 23:45:00,
2013-04-28 19:55:00,57.0,30.3,30.17,South,188,2.0,3.0,36,0.00,,,0.00,Wunderground v.1.15,2013-04-28 23:55:00,
2013-04-28 20:05:00,56.7,30.0,30.17,SSW,196,1.0,1.0,36,0.00,,,0.00,Wunderground v.1.15,2013-04-29 00:05:00,
2013-04-28 20:15:00,56.7,29.3,30.17,SW,215,2.0,2.0,35,0.00,,,0.00,Wunderground v.1.15,2013-04-29 00:15:00,
2013-04-28 20:25:00,56.6,29.2,30.17,South,169,2.0,2.0,35,0.00,,,0.00,Wunderground v.1.15,2013-04-29 00:25:00,
2013-04-28 20:35:00,56.6,30.6,30.17,South,175,1.0,4.0,37,0.00,,,0.00,Wunderground v.1.15,2013-04-29 00:35:00,
2013-04-28 20:45:00,56.6,31.3,30.17,SSW,209,2.0,2.0,38,0.00,,,0.00,Wunderground v.1.15,2013-04-29 00:45:00,
2013-04-28 20:55:00,56.3,30.3,30.17,SW,227,1.0,2.0,37,0.00,,,0.00,Wunderground v.1.15,2013-04-29 00:55:00,
2013-04-28 21:05:00,56.0,30.1,30.18,South,184,1.0,1.0,37,0.00,,,0.00,Wunderground v.1.15,2013-04-29 01:05:00,
2013-04-28 21:15:00,56.0,30.7,30.18,SSE,167,1.0,1.0,38,0.00,,,0.00,Wunderground v.1.15,2013-04-29 01:15:00,
2013-04-28 21:25:00,55.7,31.7,30.18,SSE,168,1.0,1.0,40,0.00,,,0.00,Wunderground v.1.15,2013-04-29 01:25:00,
2013-04-28 21:35:00,55.6,32.2,30.19,SSE,168,0.0,1.0,41,0.00,,,0.00,Wunderground v.1.15,2013-04-29 01:35:00,
2013-04-28 21:45:00,55.3,33.7,30.19,WSW,240,1.0,1.0,44,0.00,,,0.00,Wunderground v.1.15,2013-04-29 01:45:00,
2013-04-28 21:55:00,55.4,33.3,30.19,SSW,196,1.0,2.0,43,0.00,,,0.00,Wunderground v.1.15,2013-04-29 01:55:00,
2013-04-28 22:05:00,55.3,33.7,30.19,SW,235,1.0,1.0,44,0.00,,,0.00,Wunderground v.1.15,2013-04-29 02:05:00,
2013-04-28 22:15:00,55.1,34.7,30.19,SE,124,0.0,1.0,46,0.00,,,0.00,Wunderground v.1.15,2013-04-29 02:15:00,
2013-04-28 22:25:00,54.7,34.8,30.20,SE,124,0.0,0.0,47,0.00,,,0.00,Wunderground v.1.15,2013-04-29 02:25:00,
2013-04-28 22:35:00,54.7,34.3,30.20,SE,124,0.0,0.0,46,0.00,,,0.00,Wunderground v.1.15,2013-04-29 02:35:00,
2013-04-28 22:45:00,54.8,36.0,30.20,SE,127,0.0,0.0,49,0.00,,,0.00,Wunderground v.1.15,2013-04-29 02:45:00,
2013-04-28 22:55:00,54.5,35.2,30.20,SE,127,0.0,0.0,48,0.00,,,0.00,Wunderground v.1.15,2013-04-29 02:55:00,
2013-04-28 23:10:00,54.4,37.1,30.20,SE,127,0.0,0.0,52,0.00,,,0.00,Wunderground v.1.15,2013-04-29 03:10:00,
2013-04-28 23:15:00,54.2,37.9,30.20,SE,127,0.0,0.0,54,0.00,,,0.00,Wunderground v.1.15,2013-04-29 03:15:00,
2013-04-28 23:25:00,54.1,38.3,30.20,SE,127,0.0,0.0,55,0.00,,,0.00,Wunderground v.1.15,2013-04-29 03:25:00,
2013-04-28 23:35:00,53.9,39.5,30.20,South,187,0.0,0.0,58,0.00,,,0.00,Wunderground v.1.15,2013-04-29 03:35:00,
2013-04-28 23:45:00,54.2,40.6,30.20,South,187,0.0,0.0,60,0.00,,,0.00,Wunderground v.1.15,2013-04-29 03:45:00,
2013-04-28 23:55:00,54.1,41.4,30.20,South,187,0.0,0.0,62,0.00,,,0.00,Wunderground v.1.15,2013-04-29 03:55:00,